DW8209 Gubbio IT current weather conditions

sailwx.info

Wind from 314 at 2 knots gusting 3

Air temperature 12.8° C
Dewpoint 8.8° C

Last reported at 2015-May-29 23:51 UTC.
Time now 2015-May-30 00:27 UTC

Location: N 43°19' E 012°34'.
View on Google Maps.

See reports from other nearby stations

  
Tides and Currents Weather Stations Pressure Air Temp Water Temp Dewpoint Dewpoint Depression Visibility Wind Speed Wind Dir Waves Ship Positions
date/time (UTC)wind fromknots sea level pressurealtimeterstation pressurevisibilityair tempwater tempwave heightnotes
2015-May-29 23:51 314 2 gusting 3 12.8
2015-May-29 23:36 096 13.3
2015-May-29 23:21 078 13.3
2015-May-29 23:06 075 0 gusting 0 13.3
2015-May-29 22:51 218 1 gusting 3 14.4
2015-May-29 22:36 062 0 gusting 1 13.9
2015-May-29 22:21 070 1 gusting 2 14.4
2015-May-29 22:05 121 13.9
2015-May-29 21:50 132 14.4
2015-May-29 21:35 094 0 gusting 1 15.0
2015-May-29 21:20 120 0 gusting 2 16.1
2015-May-29 21:05 123 0 gusting 2 16.1
2015-May-29 20:50 225 15.6
2015-May-29 20:35 005 16.1
2015-May-29 20:20 068 16.1
2015-May-29 20:05 100 0 gusting 2 16.7
2015-May-29 19:50 036 16.7
2015-May-29 19:35 302 16.7
2015-May-29 19:20 207 16.7
2015-May-29 19:05 025 0 gusting 1 17.2
2015-May-29 18:50 135 17.8
2015-May-29 18:35 281 19.4
2015-May-29 18:20 280 1 gusting 2 21.1
2015-May-29 18:05 265 1 gusting 4 22.2
2015-May-29 17:50 269 1 gusting 3 22.8
2015-May-29 17:35 241 0 gusting 2 22.8
2015-May-29 17:20 270 2 gusting 5 23.3
2015-May-29 17:05 245 0 gusting 7 23.3
2015-May-29 16:50 196 3 gusting 6 23.3
2015-May-29 16:35 191 5 gusting 7 23.3
2015-May-29 16:20 210 3 gusting 7 23.3
2015-May-29 16:05 238 5 gusting 9 23.9
2015-May-29 15:50 145 1 gusting 6 23.9
2015-May-29 15:35 246 0 gusting 4 23.9
2015-May-29 15:20 194 2 gusting 6 23.9
2015-May-29 15:05 270 0 gusting 4 23.9
2015-May-29 14:50 245 1 gusting 6 23.9
2015-May-29 14:35 211 5 gusting 7 23.3
2015-May-29 14:20 240 2 gusting 5 23.9
2015-May-29 14:05 172 5 gusting 8 23.9
2015-May-29 13:50 207 6 gusting 8 23.9
2015-May-29 13:35 197 3 gusting 8 23.9
2015-May-29 13:20 214 2 gusting 6 23.3
2015-May-29 13:05 217 5 gusting 8 23.9
2015-May-29 12:52 217 1 gusting 7 23.9
2015-May-29 12:35 245 2 gusting 7 23.9
2015-May-29 12:20 249 2 gusting 8 23.3
2015-May-29 12:05 236 1 gusting 6 23.3
2015-May-29 11:50 166 2 gusting 6 23.9
2015-May-29 11:37 205 4 gusting 8 23.3
2015-May-29 11:22 200 1 gusting 5 23.3
2015-May-29 11:05 135 3 gusting 6 22.8
2015-May-29 10:50 100 5 gusting 6 22.2
2015-May-29 10:35 123 0 gusting 5 22.2
2015-May-29 10:20 112 0 gusting 4 21.7
2015-May-29 10:05 345 1 gusting 5 21.7
2015-May-29 09:50 113 1 gusting 4 21.7
2015-May-29 09:35 044 1 gusting 4 21.1
2015-May-29 09:22 183 2 gusting 3 21.7
2015-May-29 09:04 256 0 gusting 1 20.6
2015-May-29 08:49 108 0 gusting 2 19.4
2015-May-29 08:34 278 19.4
2015-May-29 08:19 095 0 gusting 1 20.0
2015-May-29 08:04 090 18.3
2015-May-29 07:49 330 0 gusting 1 17.8
2015-May-29 07:34 345 17.8
2015-May-29 07:21 141 16.1
2015-May-29 07:04 008 15.6
2015-May-29 06:49 077 14.4
2015-May-29 06:34 083 13.9
2015-May-29 06:19 095 12.2
2015-May-29 06:04 111 0 gusting 1 11.1
2015-May-29 05:49 086 11.7
2015-May-29 05:33 036 11.1
2015-May-29 05:18 278 10.0
2015-May-29 05:03 284 9.4
2015-May-29 04:48 285 8.3
2015-May-29 04:33 283 7.8
2015-May-29 04:18 283 6.7
2015-May-29 04:03 283 5.0
2015-May-29 03:48 283 5.6
2015-May-29 03:33 283 0 gusting 0 5.6
2015-May-29 03:18 289 5.6
2015-May-29 03:03 290 5.6
2015-May-29 02:48 289 5.6
2015-May-29 02:33 290 5.6
2015-May-29 02:18 289 6.1
2015-May-29 02:03 290 6.1
2015-May-29 01:48 289 6.1
2015-May-29 01:33 062 6.7
2015-May-29 01:18 065 7.2
2015-May-29 01:03 235 6.7
2015-May-29 00:48 235 6.7
2015-May-29 00:33 277 7.2
2015-May-29 00:18 278 7.2
2015-May-29 00:03 278 7.2
2015-May-28 23:48 278 7.2
2015-May-28 23:33 278 7.8
2015-May-28 23:18 278 7.8
2015-May-28 23:02 278 8.3
2015-May-28 22:47 278 8.3
2015-May-28 22:32 278 8.3
2015-May-28 22:17 278 8.9
2015-May-28 22:02 278 8.9
2015-May-28 21:47 278 9.4
2015-May-28 21:32 278 9.4
2015-May-28 21:17 288 10.0
2015-May-28 21:02 290 10.0
2015-May-28 20:47 285 10.6
2015-May-28 20:32 285 11.1
2015-May-28 20:17 285 11.7
2015-May-28 20:02 287 0 gusting 1 11.7
2015-May-28 19:47 270 12.2
2015-May-28 19:32 290 13.3
2015-May-28 19:17 291 13.9
2015-May-28 19:02 215 15.0
2015-May-28 18:47 194 16.1
2015-May-28 18:32 188 0 gusting 2 16.7
2015-May-28 18:17 179 1 gusting 3 17.2
2015-May-28 18:02 146 0 gusting 4 18.3
2015-May-28 17:47 146 2 gusting 5 18.3
2015-May-28 17:32 121 2 gusting 6 18.9
2015-May-28 17:17 118 20.0
2015-May-28 17:02 033 0 gusting 1 20.6
2015-May-28 16:47 359 2 gusting 4 20.0
2015-May-28 16:32 040 2 gusting 5 19.4
2015-May-28 16:17 010 2 gusting 6 19.4
2015-May-28 16:02 349 2 gusting 6 19.4
2015-May-28 15:47 354 2 gusting 7 19.4
2015-May-28 15:32 023 2 gusting 6 19.4
2015-May-28 15:17 077 1 gusting 6 18.9
2015-May-28 15:02 051 1 gusting 5 19.4
2015-May-28 14:47 360 3 gusting 6 19.4
2015-May-28 14:32 018 4 gusting 8 19.4
2015-May-28 14:17 285 1 gusting 6 19.4
2015-May-28 14:02 335 2 gusting 7 18.9
2015-May-28 13:47 049 4 gusting 6 19.4
2015-May-28 13:32 038 4 gusting 7 18.9
2015-May-28 13:17 053 3 gusting 6 18.9
2015-May-28 13:02 042 2 gusting 6 18.9
2015-May-28 12:47 058 18.9
2015-May-28 12:32 084 4 gusting 8 18.3
2015-May-28 12:17 219 1 gusting 10 18.3
2015-May-28 12:02 355 7 gusting 11 18.3
2015-May-28 11:47 035 6 gusting 10 17.8
2015-May-28 11:32 352 5 gusting 8 17.8
2015-May-28 11:17 309 3 gusting 9 17.8
2015-May-28 11:01 345 1 gusting 8 17.2
2015-May-28 10:46 329 6 gusting 12 17.2
2015-May-28 10:31 340 4 gusting 9 17.2
2015-May-28 10:16 346 4 gusting 8 16.7
2015-May-28 10:01 340 5 gusting 9 16.7
2015-May-28 09:46 077 3 gusting 10 16.1
2015-May-28 09:16 084 5 gusting 9 16.1
2015-May-28 09:02 059 5 gusting 10 16.1
2015-May-28 08:46 077 8 gusting 11 15.6
2015-May-28 08:31 086 8 gusting 12 15.6
2015-May-28 08:16 072 6 gusting 11 15.6
2015-May-28 08:01 070 4 gusting 7 15.6
2015-May-28 07:46 082 4 gusting 9 15.0
2015-May-28 07:31 074 5 gusting 9 15.0
2015-May-28 07:16 065 5 gusting 8 15.0
2015-May-28 07:01 065 3 gusting 5 15.0
2015-May-28 06:46 086 1 gusting 3 13.9
2015-May-28 06:31 328 1 gusting 5 13.3
2015-May-28 06:15 325 1 gusting 5 13.3
2015-May-28 06:00 009 2 gusting 3 12.2
2015-May-28 05:45 079 10.0
2015-May-28 05:30 253 7.8
2015-May-28 05:15 249 7.2
2015-May-28 05:00 142 7.2
2015-May-28 04:46 270 6.7
2015-May-28 04:30 281 0 gusting 1 5.6
2015-May-28 04:15 294 2 gusting 4 6.1
2015-May-28 04:00 014 6.1
2015-May-28 03:45 327 6.1
2015-May-28 03:30 354 6.1
2015-May-28 03:15 283 1 gusting 2 6.7
2015-May-28 03:00 287 6.1
2015-May-28 02:45 287 0 gusting 2 6.7
2015-May-28 02:30 307 6.7
2015-May-28 02:15 323 7.2
2015-May-28 02:00 242 7.8
2015-May-28 01:45 296 7.2
2015-May-28 01:30 331 7.8
2015-May-28 01:15 246 8.3
2015-May-28 01:00 263 0 gusting 1 8.9
2015-May-28 00:45 288 2 gusting 5 8.9
2015-May-28 00:30 283 2 gusting 6 8.9
2015-May-28 00:15 307 0 gusting 2 8.9
2015-May-28 00:00 346 9.4